Airfield :
LOGIN :

Register | Disclaimer

   EN    FR    IT 

 










Legend :    VFR   Marginal VFR   IFR   Intensive IFR   Very Intensive IFR
Visi :
Ceiling :
>= 8 km
>= 3000ft
5 to 8 km
1000 to 3000 ft
1500m to 5 km
500 to 1000 ft
800 to 1500m
200 to 500 ft
< 800m
< 200 ft
Symbols :   Thunderstorms  Fog  Heavy snow  Heavy precipitations  Wind > 20 kt
SIGMETs :     Misc.  Thunderstorms  Icing  Turbulence  Mountain Waves  Volcanic Ashes






- Airport Elevation : 614 ft
- IATA code : CRL


EBCI - Charleroi

CURRENT METAR :
  • 270450Z 19007KT 9999 FEW008 SCT045 02/00 Q1004 NOSIG

EXPIRED METARs :
  • 270420Z 19009KT 9999 FEW008 SCT045 02/00 Q1004 NOSIG
  • 270350Z 19009KT 9999 FEW045 02/00 Q1005 NOSIG
  • 270320Z 19010KT CAVOK 02/00 Q1005 NOSIG
  • 270250Z 20009KT CAVOK 02/00 Q1006 NOSIG
  • 270220Z 20008KT 8000 NSC 02/M00 Q1007 NOSIG
  • 270150Z 21009KT CAVOK 02/M00 Q1007 NOSIG

TAF TAF EBCI
Valid from the 27 at 00:00 until the 28 at 06:00 UTC


262310Z 2700/2806 20008KT 9999 SCT025
BECMG 2706/2708 4000 -RASN BKN008
TEMPO 2708/2716 2000 SNRA BKN003
PROB40
TEMPO 2709/2715 0500 SN VV001
BECMG 2716/2718 30015G25KT 9999 NSW FEW012 SCT030
BECMG 2721/2723 26008KT



MET'MAP, your aeronautical weather chart ! - Copyright ORBIFLY December 2007 - Disclaimer

ORBIFLY MET'MAP TEAM :

Programming & Development : Alexandra Zaïnal
Concept & original design : Baudouin d'Aumeries
Assistance for programming : Marc-Olivier Méhu
Technical & hardware support : Manuel Goepfert

Contact : metmap@orbifly.com




SOURCES & CREDITS :

   NOAA